createdAt,value
2019-04-03T03:16:08.830Z,79.20
2019-04-03T03:18:37.993Z,81.80
2019-04-03T03:21:12.059Z,82.10
2019-04-03T03:23:39.072Z,82.80
2019-04-03T03:26:08.533Z,81.90
2019-04-03T03:28:37.690Z,82.80
2019-04-03T03:31:07.885Z,81.10
2019-04-03T03:33:40.581Z,81.90
2019-04-03T03:36:09.517Z,82.90
2019-04-03T03:38:40.727Z,82.70
2019-04-03T03:41:10.071Z,83.40
2019-04-03T03:43:39.628Z,84.20
2019-04-03T03:46:10.297Z,85.10
2019-04-03T03:48:43.589Z,82.80
2019-04-03T03:51:13.125Z,84.40
2019-04-03T03:53:44.523Z,85.00
2019-04-03T03:56:13.605Z,84.90
2019-04-03T03:58:45.665Z,83.70
2019-04-03T04:01:14.254Z,85.60
2019-04-03T04:03:43.529Z,87.00
2019-04-03T04:06:12.788Z,89.20
2019-04-03T04:08:44.171Z,90.30
2019-04-03T04:11:13.292Z,90.30
2019-04-03T04:13:47.590Z,90.20
2019-04-03T04:16:14.475Z,90.50
2019-04-03T04:18:44.120Z,90.90
2019-04-03T04:21:13.451Z,91.20
2019-04-03T04:23:42.878Z,90.80
2019-04-03T04:26:12.861Z,89.80
2019-04-03T04:28:42.427Z,90.30
2019-04-03T04:31:12.976Z,91.00
2019-04-03T04:33:42.110Z,90.70
2019-04-03T04:36:11.053Z,91.40
2019-04-03T04:38:40.047Z,90.90
2019-04-03T04:41:09.352Z,90.30
2019-04-03T04:43:39.399Z,90.40
2019-04-03T04:46:09.673Z,90.20
2019-04-03T04:48:39.810Z,90.20
2019-04-03T04:51:08.738Z,91.20
2019-04-03T04:53:37.690Z,91.80
2019-04-03T04:56:07.358Z,92.70
2019-04-03T04:58:36.562Z,92.90
2019-04-03T05:01:05.652Z,93.30
2019-04-03T05:03:34.671Z,92.20
2019-04-03T05:06:03.666Z,93.70
2019-04-03T05:08:33.571Z,93.50
2019-04-03T05:11:03.177Z,93.80
2019-04-03T05:13:32.133Z,93.40
2019-04-03T05:16:01.134Z,94.20
2019-04-03T05:18:30.170Z,93.90
2019-04-03T05:20:59.240Z,94.20
2019-04-03T05:23:28.292Z,94.40
2019-04-03T05:25:57.808Z,93.80
2019-04-03T05:28:28.433Z,94.10
2019-04-03T05:30:57.705Z,94.00
2019-04-03T05:33:26.810Z,93.70
2019-04-03T05:35:55.807Z,94.60
2019-04-03T05:38:24.850Z,93.80
2019-04-03T05:40:56.117Z,93.20
2019-04-03T05:43:24.800Z,92.70
2019-04-03T05:45:54.095Z,92.00
2019-04-03T05:48:23.211Z,92.10
2019-04-03T05:50:52.278Z,92.00
2019-04-03T05:53:21.362Z,94.10
2019-04-03T05:55:50.411Z,94.60
2019-04-03T05:58:19.681Z,94.60
2019-04-03T06:00:48.681Z,93.50
2019-04-03T06:03:17.990Z,93.90
2019-04-03T06:05:47.186Z,91.80
2019-04-03T06:08:17.906Z,91.80
2019-04-03T06:10:47.027Z,93.40
2019-04-03T06:13:17.089Z,93.50
2019-04-03T06:15:46.659Z,93.10
2019-04-03T06:18:17.521Z,91.50
2019-04-03T06:20:46.497Z,92.10
2019-04-03T06:23:15.721Z,92.90
2019-04-03T06:25:45.393Z,92.00
2019-04-03T06:28:14.453Z,92.50
2019-04-03T06:30:43.743Z,90.40
2019-04-03T06:33:12.903Z,88.40
2019-04-03T06:35:44.687Z,88.30
2019-04-03T06:38:12.687Z,87.40
2019-04-03T06:40:41.744Z,86.20
2019-04-03T06:43:10.819Z,87.10
2019-04-03T06:45:42.788Z,88.80
2019-04-03T06:48:10.662Z,88.20
2019-04-03T06:50:39.620Z,87.80
2019-04-03T06:53:08.663Z,87.30
2019-04-03T06:55:37.965Z,88.30
2019-04-03T06:58:06.925Z,88.70
2019-04-03T07:00:36.083Z,89.10
2019-04-03T07:03:05.363Z,89.10
2019-04-03T07:05:34.536Z,90.00
2019-04-03T07:08:05.088Z,89.60
2019-04-03T07:10:36.194Z,88.90
2019-04-03T07:13:05.199Z,88.50
2019-04-03T07:15:34.206Z,85.60
2019-04-03T07:18:05.580Z,86.10
2019-04-03T07:20:33.986Z,84.70
2019-04-03T07:23:03.167Z,83.60
2019-04-03T07:25:33.934Z,81.60
2019-04-03T07:28:02.964Z,82.30
2019-04-03T07:30:32.026Z,82.40
2019-04-03T07:33:01.192Z,80.70
2019-04-03T07:35:30.564Z,79.40
2019-04-03T07:37:59.584Z,78.70
2019-04-03T07:40:28.943Z,77.60
2019-04-03T07:42:58.238Z,80.70
2019-04-03T07:45:27.262Z,79.50
2019-04-03T07:47:56.253Z,78.10
2019-04-03T07:50:25.512Z,75.40
2019-04-03T07:52:54.611Z,72.50
2019-04-03T07:55:24.223Z,72.30
2019-04-03T07:57:54.359Z,71.50
2019-04-03T08:00:23.910Z,71.50
2019-04-03T08:02:53.084Z,71.10
2019-04-03T08:05:22.248Z,68.40
2019-04-03T08:07:51.198Z,69.00
2019-04-03T08:10:20.290Z,67.20
2019-04-03T08:12:49.599Z,68.30
2019-04-03T08:15:18.807Z,65.90
2019-04-03T08:17:49.580Z,64.50
2019-04-03T08:20:20.124Z,65.70
2019-04-03T08:22:49.375Z,67.20
2019-04-03T08:25:18.498Z,65.20
2019-04-03T08:27:47.593Z,65.30
2019-04-03T08:30:16.929Z,64.10
2019-04-03T08:32:48.520Z,63.10
2019-04-03T08:35:22.388Z,62.60
2019-04-03T08:37:47.853Z,64.10
2019-04-03T08:40:20.023Z,61.60
2019-04-03T08:42:47.770Z,60.50
2019-04-03T08:45:17.003Z,60.70
2019-04-03T08:47:46.847Z,59.30
2019-04-03T08:53:21.141Z,61.40
2019-04-03T08:55:50.102Z,62.00
2019-04-03T08:58:21.314Z,59.00
2019-04-03T09:00:50.728Z,59.10
2019-04-03T09:03:19.726Z,60.00
2019-04-03T09:05:50.967Z,56.90
2019-04-03T09:08:19.694Z,56.00
2019-04-03T09:10:48.917Z,57.80
2019-04-03T09:13:22.091Z,55.40
2019-04-03T09:15:49.133Z,56.50
2019-04-03T09:18:18.414Z,58.80
2019-04-03T09:20:47.471Z,57.90
2019-04-03T09:23:17.030Z,57.90
2019-04-03T09:25:46.109Z,57.90
2019-04-03T09:28:15.146Z,59.80
2019-04-03T09:30:46.883Z,58.30
2019-04-03T09:33:14.998Z,59.70
2019-04-03T09:35:44.171Z,58.50
2019-04-03T09:38:13.250Z,59.10
2019-04-03T09:40:42.331Z,58.90
2019-04-03T09:43:11.598Z,56.60
2019-04-03T09:45:40.696Z,56.90
2019-04-03T09:48:11.624Z,57.40
2019-04-03T09:50:41.140Z,56.60
2019-04-03T09:53:10.290Z,54.10
2019-04-03T09:55:39.295Z,55.40
2019-04-03T09:58:08.373Z,57.10
2019-04-03T10:00:37.526Z,56.80
2019-04-03T10:03:06.726Z,53.70
2019-04-03T10:05:35.991Z,54.50
2019-04-03T10:08:07.572Z,56.60
2019-04-03T10:10:35.961Z,56.60
2019-04-03T10:13:05.306Z,54.90
2019-04-03T10:15:34.571Z,52.50
2019-04-03T10:18:04.121Z,53.40
2019-04-03T10:20:33.547Z,50.80
2019-04-03T10:23:02.563Z,49.10
2019-04-03T10:25:31.739Z,50.30
2019-04-03T10:28:01.041Z,51.90
2019-04-03T10:30:30.707Z,50.70
2019-04-03T10:33:00.404Z,53.20
2019-04-03T10:35:30.186Z,51.90
2019-04-03T10:37:59.083Z,49.70
2019-04-03T10:40:28.478Z,48.40
2019-04-03T10:43:00.063Z,48.20
2019-04-03T10:45:28.864Z,47.70
2019-04-03T10:47:58.267Z,47.30
2019-04-03T10:50:27.513Z,47.00
2019-04-03T10:52:57.513Z,48.30
2019-04-03T10:55:28.417Z,46.80
2019-04-03T10:57:57.517Z,48.60
2019-04-03T11:00:28.877Z,45.90
2019-04-03T11:02:57.413Z,45.90
2019-04-03T11:05:26.423Z,46.30
2019-04-03T11:07:55.453Z,44.70
2019-04-03T11:10:25.273Z,44.30
2019-04-03T11:12:54.718Z,45.50
2019-04-03T11:15:23.762Z,42.90
2019-04-03T11:17:52.738Z,44.80
2019-04-03T11:20:21.914Z,43.40
2019-04-03T11:23:04.108Z,40.30
2019-04-03T11:25:21.792Z,42.00
2019-04-03T11:27:50.921Z,44.50
2019-04-03T11:30:54.599Z,43.30
2019-04-03T11:32:51.017Z,41.20
2019-04-03T11:35:22.292Z,41.00
2019-04-03T11:37:51.761Z,41.90
2019-04-03T11:40:24.093Z,42.90
2019-04-03T11:42:52.264Z,39.10
2019-04-03T11:45:21.539Z,37.50
2019-04-03T11:47:50.575Z,37.30
2019-04-03T11:50:20.242Z,38.50
2019-04-03T11:52:51.378Z,36.20
2019-04-03T11:55:20.122Z,38.50
2019-04-03T11:57:49.604Z,39.90
2019-04-03T12:00:30.913Z,40.80
2019-04-03T12:03:00.205Z,40.10
2019-04-03T12:05:29.303Z,39.70
2019-04-03T12:07:58.456Z,38.00
2019-04-03T12:10:27.498Z,37.90
2019-04-03T12:12:56.517Z,37.30
2019-04-03T12:15:26.008Z,38.80
2019-04-03T12:17:55.529Z,38.50
2019-04-03T12:20:24.639Z,38.10
2019-04-03T12:22:54.594Z,38.00
2019-04-03T12:25:24.181Z,37.00
2019-04-03T12:27:53.628Z,36.10
2019-04-03T12:30:23.053Z,39.00
2019-04-03T12:32:52.415Z,34.90
2019-04-03T12:35:21.781Z,36.30
2019-04-03T12:37:51.246Z,35.70
2019-04-03T12:40:20.575Z,36.90
2019-04-03T12:42:50.044Z,35.50
2019-04-03T12:45:19.458Z,35.20
2019-04-03T12:47:48.891Z,37.80
2019-04-03T12:50:18.630Z,35.40
2019-04-03T12:52:47.607Z,33.10
2019-04-03T12:55:16.623Z,32.60
2019-04-03T12:57:45.676Z,34.50
2019-04-03T13:00:16.182Z,34.00
2019-04-03T13:02:45.300Z,34.80
2019-04-03T13:05:16.365Z,35.30
2019-04-03T13:07:46.853Z,35.70
2019-04-03T13:10:16.975Z,34.50
2019-04-03T13:12:46.154Z,35.90
2019-04-03T13:15:15.691Z,37.50
2019-04-03T13:17:44.996Z,37.30
2019-04-03T13:20:15.621Z,36.10
2019-04-03T13:22:45.007Z,36.40
2019-04-03T13:25:14.487Z,35.10
2019-04-03T13:27:44.082Z,33.70
2019-04-03T13:30:15.492Z,33.70
2019-04-03T13:32:56.737Z,34.10
2019-04-03T13:35:16.756Z,35.00
2019-04-03T13:37:46.464Z,35.30
2019-04-03T13:40:16.927Z,35.30
2019-04-03T13:42:48.867Z,36.00
2019-04-03T13:45:17.150Z,35.50
2019-04-03T13:47:46.960Z,35.30
2019-04-03T13:50:17.291Z,35.90
2019-04-03T13:52:49.232Z,35.20
2019-04-03T13:55:17.608Z,35.70
2019-04-03T13:57:49.133Z,35.40
2019-04-03T14:00:22.757Z,36.00
2019-04-03T14:02:49.410Z,36.20
2019-04-03T14:05:18.713Z,36.00
2019-04-03T14:07:48.215Z,36.10
2019-04-03T14:10:17.567Z,37.50
2019-04-03T14:12:46.739Z,37.20
2019-04-03T14:15:17.643Z,37.30
2019-04-03T14:17:55.321Z,36.50
2019-04-03T14:20:18.813Z,36.20
2019-04-03T14:22:48.128Z,37.00
2019-04-03T14:25:20.561Z,37.40
2019-04-03T14:27:47.922Z,37.20
2019-04-03T14:30:17.042Z,37.50
2019-04-03T14:32:46.504Z,37.90
2019-04-03T14:35:44.359Z,39.00
2019-04-03T14:37:46.626Z,38.70
2019-04-03T14:40:15.773Z,39.10
2019-04-03T14:42:44.808Z,39.60
2019-04-03T14:45:15.239Z,38.20
2019-04-03T14:47:45.356Z,38.90
2019-04-03T14:50:14.726Z,38.30
2019-04-03T14:52:44.132Z,38.80
2019-04-03T14:55:19.459Z,39.00
2019-04-03T14:57:44.560Z,39.40
2019-04-03T15:00:26.905Z,39.70
2019-04-03T15:02:45.482Z,38.70
2019-04-03T15:05:14.632Z,38.80
2019-04-03T15:07:43.739Z,39.10
2019-04-03T15:10:13.274Z,38.80
2019-04-03T15:12:42.319Z,38.90
2019-04-03T15:15:11.971Z,39.80
2019-04-03T15:17:41.523Z,40.00
2019-04-03T15:20:11.565Z,39.30
2019-04-03T15:22:40.682Z,39.90
2019-04-03T15:25:09.723Z,39.90
2019-04-03T15:27:39.158Z,40.30
2019-04-03T15:30:10.833Z,40.50
2019-04-03T15:32:40.193Z,40.60
2019-04-03T15:35:10.278Z,40.60
2019-04-03T15:37:41.938Z,40.10
2019-04-03T15:40:11.481Z,40.00
2019-04-03T15:42:41.876Z,40.50
2019-04-03T15:45:11.668Z,40.00
2019-04-03T15:47:45.027Z,40.00
2019-04-03T15:50:11.997Z,40.00
2019-04-03T15:52:43.545Z,40.20
2019-04-03T15:55:12.166Z,40.30
2019-04-03T15:57:41.447Z,40.10
2019-04-03T16:00:12.449Z,40.60
2019-04-03T16:02:44.470Z,40.30
2019-04-03T16:05:13.388Z,40.50
2019-04-03T16:07:42.830Z,40.90
2019-04-03T16:10:12.175Z,40.70
2019-04-03T16:12:43.156Z,41.10
2019-04-03T16:15:13.945Z,41.70
2019-04-03T16:17:43.164Z,41.40
2019-04-03T16:20:17.496Z,41.40
2019-04-03T16:22:45.876Z,41.30
2019-04-03T16:25:16.729Z,41.40
2019-04-03T16:27:46.609Z,41.80
2019-04-03T16:30:18.705Z,41.70
2019-04-03T16:32:47.673Z,42.40
2019-04-03T16:35:17.418Z,41.70
2019-04-03T16:37:46.518Z,42.30
2019-04-03T16:40:15.971Z,42.60
2019-04-03T16:42:47.468Z,42.10
2019-04-03T16:45:15.995Z,42.40
2019-04-03T16:47:45.792Z,42.20
2019-04-03T16:50:15.337Z,42.10
2019-04-03T16:52:46.834Z,42.00
2019-04-03T16:55:15.907Z,41.80
2019-04-03T16:57:46.077Z,42.20
2019-04-03T17:00:15.581Z,42.50
2019-04-03T17:02:44.916Z,42.20
2019-04-03T17:05:14.453Z,42.60
2019-04-03T17:07:43.367Z,43.70
2019-04-03T17:10:14.028Z,42.70
2019-04-03T17:12:45.290Z,42.70
2019-04-03T17:15:14.336Z,42.90
2019-04-03T17:17:46.205Z,42.80
2019-04-03T17:20:14.261Z,43.10
2019-04-03T17:22:45.096Z,43.60
2019-04-03T17:25:14.358Z,43.70
2019-04-03T17:27:54.535Z,43.40
2019-04-03T17:30:16.267Z,43.40
2019-04-03T17:32:46.119Z,44.60
2019-04-03T17:35:16.267Z,43.80
2019-04-03T17:37:46.023Z,44.00
2019-04-03T17:40:15.478Z,44.20
2019-04-03T17:42:44.506Z,44.20
2019-04-03T17:45:15.506Z,44.40
2019-04-03T17:47:44.322Z,44.50
2019-04-03T17:50:13.638Z,44.60
2019-04-03T17:52:42.775Z,44.90
2019-04-03T17:55:12.031Z,44.80
2019-04-03T17:57:41.107Z,45.20
2019-04-03T18:00:13.782Z,45.10
2019-04-03T18:02:42.887Z,45.30
2019-04-03T18:05:12.570Z,45.10
2019-04-03T18:07:41.637Z,45.60
2019-04-03T18:10:12.709Z,45.60
2019-04-03T18:12:41.554Z,45.70
2019-04-03T18:15:11.541Z,45.70
2019-04-03T18:17:40.450Z,45.50
2019-04-03T18:20:12.594Z,45.80
2019-04-03T18:22:41.325Z,46.40
2019-04-03T18:25:10.714Z,46.00
2019-04-03T18:27:39.723Z,45.80
2019-04-03T18:30:11.863Z,46.40
2019-04-03T18:32:41.448Z,46.80
2019-04-03T18:35:11.008Z,46.50
2019-04-03T18:37:41.162Z,46.40
2019-04-03T18:40:13.984Z,46.20
2019-04-03T18:42:41.675Z,46.40
2019-04-03T18:45:24.142Z,46.90
2019-04-03T18:47:43.912Z,46.60
2019-04-03T18:50:13.286Z,47.10
2019-04-03T18:52:42.325Z,47.10
2019-04-03T18:55:14.659Z,47.10
2019-04-03T18:57:42.959Z,46.80
2019-04-03T19:00:13.152Z,46.90
2019-04-03T19:02:42.938Z,47.10
2019-04-03T19:05:14.257Z,47.40
2019-04-03T19:07:45.885Z,47.40
2019-04-03T19:10:13.937Z,47.60
2019-04-03T19:12:43.667Z,47.40
2019-04-03T19:15:13.375Z,47.60
2019-04-03T19:17:42.556Z,47.60
2019-04-03T19:20:12.317Z,47.80
2019-04-03T19:22:41.440Z,48.00
2019-04-03T19:25:10.928Z,48.20
2019-04-03T19:27:40.611Z,48.40
2019-04-03T19:30:10.177Z,48.00
2019-04-03T19:32:39.293Z,47.90
2019-04-03T19:35:09.801Z,48.00
2019-04-03T19:37:39.108Z,48.10
2019-04-03T19:40:09.776Z,48.30
2019-04-03T19:42:39.891Z,48.60
2019-04-03T19:45:09.328Z,48.80
2019-04-03T19:47:38.613Z,48.50
2019-04-03T19:50:09.511Z,48.60
2019-04-03T19:52:41.637Z,48.70
2019-04-03T19:55:10.050Z,48.80
2019-04-03T19:57:39.075Z,48.60
2019-04-03T20:00:09.085Z,48.90
2019-04-03T20:02:40.463Z,49.10
2019-04-03T20:05:09.221Z,49.20
2019-04-03T20:07:38.283Z,49.40
2019-04-03T20:10:08.606Z,49.80
2019-04-03T20:12:38.355Z,51.00
2019-04-03T20:15:08.109Z,53.90
2019-04-03T20:17:37.140Z,63.50
2019-04-03T20:20:06.687Z,71.20
2019-04-03T20:22:37.376Z,74.30
2019-04-03T20:25:06.898Z,77.50
2019-04-03T20:27:36.870Z,79.90
2019-04-03T20:30:07.445Z,81.80
2019-04-03T20:32:40.047Z,83.60
2019-04-03T20:35:07.806Z,84.90
2019-04-03T20:37:36.868Z,87.70
2019-04-03T20:40:06.338Z,89.00
2019-04-03T20:42:35.404Z,90.40
2019-04-03T20:45:05.577Z,91.20
2019-04-03T20:47:35.506Z,92.20
2019-04-03T20:50:06.972Z,93.10
2019-04-03T20:52:36.099Z,93.70
2019-04-03T20:55:05.621Z,94.50
2019-04-03T20:57:34.765Z,95.20
2019-04-03T21:00:08.959Z,95.90
2019-04-03T21:02:41.247Z,96.40
2019-04-03T21:05:17.638Z,97.10
2019-04-03T21:07:47.068Z,98.10
2019-04-03T21:10:18.086Z,98.30
2019-04-03T21:12:47.873Z,99.50
2019-04-03T21:15:17.958Z,99.80
2019-04-03T21:17:49.822Z,99.90
2019-04-03T21:20:19.005Z,99.90
2019-04-03T21:22:47.968Z,99.90
2019-04-03T21:25:16.964Z,99.90
2019-04-03T21:27:46.155Z,99.90
2019-04-03T21:30:15.237Z,99.90
2019-04-03T21:32:44.269Z,99.90
2019-04-03T21:35:13.402Z,99.90
2019-04-03T21:37:42.460Z,99.90
2019-04-03T21:40:13.005Z,99.90
2019-04-03T21:42:42.303Z,99.90
2019-04-03T21:45:11.387Z,99.90
2019-04-03T21:47:40.873Z,99.90
2019-04-03T21:50:11.469Z,99.90
2019-04-03T21:52:40.503Z,99.90
2019-04-03T21:55:09.805Z,99.90
2019-04-03T21:57:38.747Z,99.90
2019-04-03T22:00:09.033Z,99.90
2019-04-03T22:02:38.435Z,99.90
2019-04-03T22:05:08.224Z,99.90
2019-04-03T22:07:37.591Z,99.90
2019-04-03T22:10:08.845Z,99.90
2019-04-03T22:12:37.650Z,99.90
2019-04-03T22:15:07.576Z,99.90
2019-04-03T22:17:36.642Z,99.90
2019-04-03T22:20:06.257Z,99.90
2019-04-03T22:22:35.275Z,99.90
2019-04-03T22:25:04.563Z,99.90
2019-04-03T22:27:33.595Z,99.90
2019-04-03T22:30:02.520Z,99.90
